createdAt,value
2023-04-19T00:03:35.065Z,58.63
2023-04-19T00:06:03.881Z,58.75
2023-04-19T00:08:32.004Z,58.67
2023-04-19T00:11:01.423Z,58.81
2023-04-19T00:13:29.989Z,58.80
2023-04-19T00:15:58.339Z,58.96
2023-04-19T00:18:26.632Z,59.07
2023-04-19T00:20:54.786Z,59.19
2023-04-19T00:23:23.029Z,59.12
2023-04-19T00:25:52.822Z,59.22
2023-04-19T00:28:21.538Z,59.28
2023-04-19T00:30:49.671Z,59.01
2023-04-19T00:33:18.611Z,58.63
2023-04-19T00:35:46.906Z,58.11
2023-04-19T00:38:15.605Z,57.65
2023-04-19T00:40:44.325Z,57.07
2023-04-19T00:43:17.814Z,56.70
2023-04-19T00:45:48.204Z,56.55
2023-04-19T00:48:17.078Z,56.25
2023-04-19T00:50:46.138Z,55.92
2023-04-19T00:53:16.037Z,55.76
2023-04-19T00:55:44.864Z,55.59
2023-04-19T00:58:14.708Z,55.40
2023-04-19T01:00:44.428Z,55.15
2023-04-19T01:03:13.952Z,55.36
2023-04-19T01:05:42.803Z,54.85
2023-04-19T01:08:11.139Z,54.89
2023-04-19T01:10:39.282Z,54.67
2023-04-19T01:13:07.790Z,54.46
2023-04-19T01:15:37.459Z,54.26
2023-04-19T01:18:05.850Z,54.03
2023-04-19T01:20:34.508Z,53.98
2023-04-19T01:23:02.774Z,53.62
2023-04-19T01:25:30.870Z,53.46
2023-04-19T01:27:59.298Z,53.25
2023-04-19T01:30:27.674Z,52.82
2023-04-19T01:32:55.821Z,52.52
2023-04-19T01:35:24.177Z,52.41
2023-04-19T01:37:53.061Z,52.27
2023-04-19T01:40:24.508Z,52.02
2023-04-19T01:42:54.284Z,51.68
2023-04-19T01:45:22.666Z,51.65
2023-04-19T01:47:51.791Z,51.31
2023-04-19T01:50:20.765Z,51.03
2023-04-19T01:52:49.383Z,50.62
2023-04-19T01:55:17.764Z,50.09
2023-04-19T01:57:45.897Z,49.98
2023-04-19T02:00:14.777Z,49.68
2023-04-19T02:02:44.250Z,49.71
2023-04-19T02:05:13.884Z,49.35
2023-04-19T02:07:42.572Z,49.15
2023-04-19T02:10:12.332Z,48.97
2023-04-19T02:12:41.677Z,48.68
2023-04-19T02:15:10.502Z,48.29
2023-04-19T02:17:38.954Z,48.32
2023-04-19T02:20:08.099Z,48.11
2023-04-19T02:22:36.340Z,48.05
2023-04-19T02:25:05.482Z,47.82
2023-04-19T02:27:33.667Z,47.61
2023-04-19T02:30:01.899Z,47.29
2023-04-19T02:32:31.376Z,47.15
2023-04-19T02:34:59.823Z,47.02
2023-04-19T02:37:28.661Z,46.72
2023-04-19T02:39:56.730Z,46.15
2023-04-19T02:42:24.943Z,46.11
2023-04-19T02:44:53.182Z,45.94
2023-04-19T02:47:26.636Z,45.86
2023-04-19T02:49:55.591Z,45.54
2023-04-19T02:52:23.773Z,45.43
2023-04-19T02:54:52.400Z,45.39
2023-04-19T02:57:20.507Z,45.20
2023-04-19T02:59:49.312Z,45.09
2023-04-19T03:02:18.841Z,45.13
2023-04-19T03:04:48.913Z,44.88
2023-04-19T03:07:16.974Z,44.82
2023-04-19T03:09:45.504Z,44.79
2023-04-19T03:12:13.634Z,44.66
2023-04-19T03:14:41.827Z,44.55
2023-04-19T03:17:10.150Z,44.42
2023-04-19T03:19:38.319Z,44.27
2023-04-19T03:22:06.649Z,44.23
2023-04-19T03:24:37.795Z,44.22
2023-04-19T03:27:06.845Z,44.06
2023-04-19T03:29:35.572Z,43.92
2023-04-19T03:32:03.960Z,43.92
2023-04-19T03:34:32.133Z,43.93
2023-04-19T03:37:01.234Z,43.86
2023-04-19T03:39:29.595Z,43.71
2023-04-19T03:41:57.652Z,43.58
2023-04-19T03:44:25.934Z,43.45
2023-04-19T03:46:54.117Z,43.45
2023-04-19T03:49:22.782Z,43.28
2023-04-19T03:51:51.965Z,43.20
2023-04-19T03:54:20.503Z,43.21
2023-04-19T03:56:48.705Z,43.21
2023-04-19T03:59:17.027Z,43.04
2023-04-19T04:01:46.674Z,43.06
2023-04-19T04:04:15.474Z,42.78
2023-04-19T04:06:44.498Z,42.86
2023-04-19T04:09:12.855Z,42.69
2023-04-19T04:11:41.285Z,42.78
2023-04-19T04:14:09.469Z,42.58
2023-04-19T04:16:38.211Z,42.55
2023-04-19T04:19:07.412Z,42.36
2023-04-19T04:21:35.611Z,42.49
2023-04-19T04:24:04.187Z,42.21
2023-04-19T04:26:32.717Z,42.30
2023-04-19T04:29:01.543Z,42.17
2023-04-19T04:31:29.880Z,42.26
2023-04-19T04:33:58.679Z,42.21
2023-04-19T04:36:27.485Z,42.41
2023-04-19T04:38:56.232Z,42.14
2023-04-19T04:41:24.240Z,42.10
2023-04-19T04:44:08.304Z,42.16
2023-04-19T04:46:39.394Z,42.27
2023-04-19T04:49:07.534Z,42.13
2023-04-19T04:51:36.271Z,42.06
2023-04-19T04:54:04.734Z,41.97
2023-04-19T04:56:32.944Z,42.16
2023-04-19T04:59:01.152Z,42.01
2023-04-19T05:01:30.902Z,42.05
2023-04-19T05:04:00.583Z,41.85
2023-04-19T05:06:28.869Z,41.79
2023-04-19T05:08:57.416Z,41.61
2023-04-19T05:11:27.615Z,41.62
2023-04-19T05:13:55.804Z,41.57
2023-04-19T05:16:24.302Z,41.48
2023-04-19T05:18:52.563Z,41.60
2023-04-19T05:21:20.745Z,41.51
2023-04-19T05:23:49.717Z,41.32
2023-04-19T05:26:17.925Z,41.34
2023-04-19T05:28:46.644Z,41.48
2023-04-19T05:31:15.289Z,41.19
2023-04-19T05:33:44.086Z,41.29
2023-04-19T05:36:12.238Z,41.41
2023-04-19T05:38:40.551Z,41.20
2023-04-19T05:41:08.869Z,41.24
2023-04-19T05:43:37.053Z,41.16
2023-04-19T05:46:06.049Z,41.35
2023-04-19T05:48:34.312Z,41.11
2023-04-19T05:51:03.613Z,41.43
2023-04-19T05:53:31.740Z,41.04
2023-04-19T05:55:59.867Z,41.10
2023-04-19T05:58:28.023Z,40.73
2023-04-19T06:00:57.650Z,40.72
2023-04-19T06:03:28.737Z,40.52
2023-04-19T06:06:00.466Z,40.71
2023-04-19T06:08:29.379Z,40.59
2023-04-19T06:11:02.119Z,40.59
2023-04-19T06:13:33.541Z,40.39
2023-04-19T06:16:02.925Z,40.35
2023-04-19T06:18:31.448Z,40.48
2023-04-19T06:21:00.224Z,40.63
2023-04-19T06:23:28.442Z,40.25
2023-04-19T06:25:57.112Z,40.22
2023-04-19T06:28:25.350Z,40.25
2023-04-19T06:30:53.588Z,39.97
2023-04-19T06:33:22.103Z,39.83
2023-04-19T06:35:50.399Z,39.62
2023-04-19T06:38:19.190Z,39.43
2023-04-19T06:40:47.544Z,39.10
2023-04-19T06:43:15.849Z,39.19
2023-04-19T06:45:44.457Z,39.15
2023-04-19T06:48:12.830Z,39.33
2023-04-19T06:50:41.522Z,39.10
2023-04-19T06:53:09.958Z,39.09
2023-04-19T06:55:38.891Z,38.98
2023-04-19T06:58:07.321Z,38.94
2023-04-19T07:00:35.684Z,38.90
2023-04-19T07:03:05.340Z,38.80
2023-04-19T07:05:34.076Z,38.59
2023-04-19T07:08:02.227Z,38.65
2023-04-19T07:10:30.397Z,38.62
2023-04-19T07:12:58.591Z,38.39
2023-04-19T07:15:27.995Z,38.27
2023-04-19T07:17:56.823Z,38.30
2023-04-19T07:20:26.367Z,38.07
2023-04-19T07:22:55.147Z,38.09
2023-04-19T07:25:24.529Z,38.41
2023-04-19T07:27:54.434Z,38.43
2023-04-19T07:30:23.240Z,38.42
2023-04-19T07:32:51.957Z,38.53
2023-04-19T07:35:20.913Z,38.50
2023-04-19T07:37:49.745Z,38.62
2023-04-19T07:40:18.789Z,38.58
2023-04-19T07:42:46.948Z,38.55
2023-04-19T07:45:15.906Z,38.43
2023-04-19T07:47:45.406Z,38.61
2023-04-19T07:50:14.110Z,38.23
2023-04-19T07:52:42.510Z,38.29
2023-04-19T07:55:11.685Z,38.12
2023-04-19T07:57:41.862Z,38.18
2023-04-19T08:00:10.800Z,38.04
2023-04-19T08:02:39.689Z,38.04
2023-04-19T08:05:08.958Z,36.98
2023-04-19T08:07:38.397Z,36.18
2023-04-19T08:10:09.346Z,36.53
2023-04-19T08:12:45.262Z,36.17
2023-04-19T08:15:52.514Z,35.86
2023-04-19T08:18:08.139Z,36.12
2023-04-19T08:20:37.373Z,36.30
2023-04-19T08:23:17.714Z,36.26
2023-04-19T08:25:51.518Z,36.71
2023-04-19T08:28:21.362Z,36.76
2023-04-19T08:30:51.067Z,37.19
2023-04-19T08:33:19.837Z,37.22
2023-04-19T08:35:48.215Z,37.04
2023-04-19T08:38:16.890Z,37.23
2023-04-19T08:40:53.840Z,37.39
2023-04-19T08:43:24.786Z,37.52
2023-04-19T08:45:55.280Z,37.26
2023-04-19T08:48:24.561Z,37.34
2023-04-19T08:51:04.526Z,36.38
2023-04-19T08:53:35.042Z,36.26
2023-04-19T08:56:17.381Z,36.21
2023-04-19T08:59:07.503Z,36.07
2023-04-19T09:01:44.518Z,36.08
2023-04-19T09:06:44.671Z,36.33
2023-04-19T09:09:34.177Z,36.65
2023-04-19T09:12:18.556Z,36.40
2023-04-19T09:15:00.706Z,35.85
2023-04-19T09:17:32.471Z,35.65
2023-04-19T09:20:01.042Z,35.24
2023-04-19T09:22:29.776Z,34.26
2023-04-19T09:27:35.433Z,34.76
2023-04-19T09:30:10.805Z,35.59
2023-04-19T09:32:48.795Z,36.41
2023-04-19T09:35:17.782Z,36.40
2023-04-19T09:40:33.101Z,35.97
2023-04-19T09:45:45.375Z,35.60
2023-04-19T09:48:15.047Z,37.06
2023-04-19T09:51:05.941Z,38.02
2023-04-19T09:53:40.864Z,37.20
2023-04-19T09:56:11.868Z,36.10
2023-04-19T09:58:50.075Z,36.38
2023-04-19T10:01:25.110Z,36.47
2023-04-19T10:03:54.457Z,37.16
2023-04-19T10:08:56.232Z,37.70
2023-04-19T10:11:27.294Z,36.82
2023-04-19T10:14:00.232Z,36.73
2023-04-19T10:16:30.984Z,37.95
2023-04-19T10:19:03.760Z,37.43
2023-04-19T10:21:32.907Z,37.09
2023-04-19T10:24:02.220Z,36.70
2023-04-19T10:26:30.990Z,36.77
2023-04-19T10:28:59.454Z,36.40
2023-04-19T10:31:27.811Z,35.85
2023-04-19T10:33:56.235Z,36.65
2023-04-19T10:36:28.340Z,37.08
2023-04-19T10:38:56.610Z,37.01
2023-04-19T10:41:57.563Z,36.82
2023-04-19T10:44:26.198Z,35.42
2023-04-19T10:46:54.481Z,36.05
2023-04-19T10:49:24.638Z,36.86
2023-04-19T10:51:52.879Z,37.25
2023-04-19T10:54:33.035Z,37.20
2023-04-19T10:57:01.268Z,35.74
2023-04-19T10:59:31.563Z,35.14
2023-04-19T11:02:02.567Z,34.80
2023-04-19T11:04:40.021Z,33.44
2023-04-19T11:07:08.769Z,32.77
2023-04-19T11:09:39.263Z,32.90
2023-04-19T11:12:13.805Z,33.93
2023-04-19T11:14:51.555Z,34.16
2023-04-19T11:17:21.497Z,33.48
2023-04-19T11:20:01.646Z,33.29
2023-04-19T11:22:34.332Z,32.61
2023-04-19T11:25:07.116Z,33.11
2023-04-19T11:27:35.506Z,33.20
2023-04-19T11:30:07.646Z,33.09
2023-04-19T11:32:36.982Z,33.17
2023-04-19T11:35:09.150Z,33.64
2023-04-19T11:37:40.593Z,34.44
2023-04-19T11:40:09.401Z,34.73
2023-04-19T11:42:37.617Z,33.85
2023-04-19T11:45:13.232Z,34.14
2023-04-19T11:47:51.928Z,33.78
2023-04-19T11:50:58.543Z,34.01
2023-04-19T11:53:28.079Z,33.28
2023-04-19T11:55:57.374Z,33.09
2023-04-19T11:58:27.889Z,33.34
2023-04-19T12:00:57.902Z,33.62
2023-04-19T12:03:27.014Z,32.92
2023-04-19T12:05:58.778Z,33.46
2023-04-19T12:08:32.231Z,33.38
2023-04-19T12:11:03.574Z,33.26
2023-04-19T12:13:33.427Z,33.77
2023-04-19T12:16:01.756Z,34.10
2023-04-19T12:18:47.115Z,34.04
2023-04-19T12:21:33.142Z,33.50
2023-04-19T12:24:02.844Z,33.53
2023-04-19T12:26:32.366Z,33.61
2023-04-19T12:29:02.810Z,33.42
2023-04-19T12:31:31.922Z,32.55
2023-04-19T12:34:00.317Z,32.98
2023-04-19T12:36:28.796Z,32.78
2023-04-19T12:38:57.044Z,32.74
2023-04-19T12:41:25.272Z,32.43
2023-04-19T12:43:53.883Z,32.64
2023-04-19T12:46:22.194Z,33.64
2023-04-19T12:48:50.703Z,33.40
2023-04-19T12:51:19.612Z,33.73
2023-04-19T12:53:49.395Z,34.58
2023-04-19T12:56:18.252Z,35.39
2023-04-19T12:58:46.587Z,35.37
2023-04-19T13:01:17.729Z,35.56
2023-04-19T13:03:46.190Z,35.81
2023-04-19T13:06:14.726Z,36.07
2023-04-19T13:08:46.557Z,36.84
2023-04-19T13:11:16.951Z,37.52
2023-04-19T13:13:45.416Z,38.40
2023-04-19T13:16:13.868Z,39.10
2023-04-19T13:18:42.376Z,40.23
2023-04-19T13:21:10.535Z,39.81
2023-04-19T13:23:38.761Z,39.60
2023-04-19T13:26:07.315Z,39.49
2023-04-19T13:28:35.669Z,39.52
2023-04-19T13:31:06.048Z,39.29
2023-04-19T13:33:34.581Z,39.18
2023-04-19T13:36:03.037Z,38.81
2023-04-19T13:38:31.772Z,39.11
2023-04-19T13:41:03.964Z,39.42
2023-04-19T13:43:32.724Z,39.63
2023-04-19T13:46:01.055Z,39.69
2023-04-19T13:48:29.936Z,40.39
2023-04-19T13:50:59.802Z,41.06
2023-04-19T13:53:28.638Z,40.96
2023-04-19T13:55:57.290Z,40.53
2023-04-19T13:58:25.638Z,40.80
2023-04-19T14:00:54.557Z,41.72
2023-04-19T14:03:24.687Z,42.10
2023-04-19T14:05:53.221Z,41.45
2023-04-19T14:08:21.472Z,41.30
2023-04-19T14:10:51.459Z,41.77
2023-04-19T14:13:19.797Z,42.00
2023-04-19T14:15:48.140Z,42.28
2023-04-19T14:18:16.399Z,42.86
2023-04-19T14:20:44.809Z,42.75
2023-04-19T14:23:13.178Z,42.94
2023-04-19T14:25:41.461Z,43.24
2023-04-19T14:28:10.332Z,43.65
2023-04-19T14:30:39.363Z,43.95
2023-04-19T14:33:08.000Z,44.37
2023-04-19T14:35:36.487Z,44.35
2023-04-19T14:38:05.168Z,43.35
2023-04-19T14:40:34.006Z,44.13
2023-04-19T14:43:02.315Z,44.80
2023-04-19T14:45:30.562Z,44.67
2023-04-19T14:47:59.045Z,44.85
2023-04-19T14:50:27.309Z,44.73
2023-04-19T14:52:55.611Z,44.19
2023-04-19T14:55:25.708Z,44.33
2023-04-19T14:57:53.850Z,44.63
2023-04-19T15:00:23.434Z,44.35
2023-04-19T15:02:51.921Z,44.30
2023-04-19T15:05:23.408Z,44.22
2023-04-19T15:07:51.996Z,43.68
2023-04-19T15:10:20.092Z,43.38
2023-04-19T15:12:48.304Z,43.92
2023-04-19T15:15:16.919Z,44.22
2023-04-19T15:17:45.220Z,45.06
2023-04-19T15:20:13.777Z,45.34
2023-04-19T15:22:42.238Z,45.63
2023-04-19T15:25:13.391Z,45.67
2023-04-19T15:27:41.566Z,45.18
2023-04-19T15:30:10.745Z,45.73
2023-04-19T15:32:39.221Z,46.29
2023-04-19T15:35:08.102Z,46.16
2023-04-19T15:37:37.370Z,46.46
2023-04-19T15:40:06.369Z,46.92
2023-04-19T15:42:35.233Z,47.81
2023-04-19T15:45:04.722Z,48.12
2023-04-19T15:47:34.591Z,48.04
2023-04-19T15:50:02.897Z,48.25
2023-04-19T15:52:31.129Z,47.97
2023-04-19T15:54:59.357Z,48.42
2023-04-19T15:57:27.747Z,48.48
2023-04-19T15:59:55.933Z,48.44
2023-04-19T16:02:24.190Z,48.35
2023-04-19T16:04:52.771Z,48.55
2023-04-19T16:07:22.036Z,48.45
2023-04-19T16:09:50.438Z,48.48
2023-04-19T16:12:18.653Z,48.75
2023-04-19T16:14:47.466Z,49.42
2023-04-19T16:17:15.722Z,49.80
2023-04-19T16:19:44.024Z,49.97
2023-04-19T16:22:12.713Z,50.11
2023-04-19T16:24:41.277Z,50.32
2023-04-19T16:27:09.452Z,50.70
2023-04-19T16:29:37.632Z,51.57
2023-04-19T16:32:06.628Z,51.46
2023-04-19T16:34:35.092Z,52.29
2023-04-19T16:37:03.936Z,52.58
2023-04-19T16:39:32.402Z,52.70
2023-04-19T16:42:00.674Z,52.27
2023-04-19T16:44:29.403Z,51.99
2023-04-19T16:46:57.636Z,51.67
2023-04-19T16:49:26.025Z,50.51
2023-04-19T16:51:54.727Z,49.83
2023-04-19T16:54:23.205Z,50.10
2023-04-19T16:56:51.521Z,50.53
2023-04-19T16:59:19.833Z,51.24
2023-04-19T17:01:50.664Z,51.36
2023-04-19T17:04:18.882Z,51.54
2023-04-19T17:06:47.305Z,51.38
2023-04-19T17:09:15.534Z,50.95
2023-04-19T17:11:44.141Z,50.92
2023-04-19T17:14:12.598Z,50.10
2023-04-19T17:16:40.763Z,49.23
2023-04-19T17:19:08.897Z,49.11
2023-04-19T17:21:40.620Z,48.70
2023-04-19T17:24:09.104Z,48.61
2023-04-19T17:26:39.067Z,48.60
2023-04-19T17:29:09.724Z,48.62
2023-04-19T17:31:38.832Z,49.01
2023-04-19T17:34:08.481Z,49.40
2023-04-19T17:36:38.606Z,49.61
2023-04-19T17:39:08.427Z,49.76
2023-04-19T17:41:37.731Z,49.98
2023-04-19T17:44:06.875Z,50.29
2023-04-19T17:46:35.098Z,50.17
2023-04-19T17:49:03.383Z,50.01
2023-04-19T17:51:32.408Z,49.68
2023-04-19T17:54:00.583Z,49.80
2023-04-19T17:56:28.874Z,49.65
2023-04-19T17:58:57.889Z,49.84
2023-04-19T18:01:27.448Z,49.75
2023-04-19T18:03:56.705Z,49.79
2023-04-19T18:06:25.286Z,49.90
2023-04-19T18:08:53.888Z,49.77
2023-04-19T18:11:22.043Z,49.70
2023-04-19T18:13:51.866Z,49.95
2023-04-19T18:16:21.857Z,49.84
2023-04-19T18:18:54.297Z,49.41
2023-04-19T18:21:23.801Z,49.23
2023-04-19T18:23:53.709Z,49.21
2023-04-19T18:26:25.371Z,48.91
2023-04-19T18:28:54.856Z,48.99
2023-04-19T18:31:25.694Z,48.83
2023-04-19T18:34:00.482Z,48.83
2023-04-19T18:36:30.162Z,49.27
2023-04-19T18:39:00.770Z,49.61
2023-04-19T18:41:30.028Z,49.53
2023-04-19T18:44:30.012Z,49.43
2023-04-19T18:46:52.770Z,49.33
2023-04-19T18:49:25.283Z,49.34
2023-04-19T18:51:54.596Z,49.14
2023-04-19T18:54:23.642Z,49.19
2023-04-19T18:59:29.968Z,49.12
2023-04-19T19:02:00.432Z,49.43
2023-04-19T19:04:46.815Z,49.63
2023-04-19T19:07:34.969Z,49.79
2023-04-19T19:12:42.160Z,49.77
2023-04-19T19:15:15.031Z,49.76
2023-04-19T19:17:48.828Z,50.09
2023-04-19T19:20:24.303Z,50.15
2023-04-19T19:22:55.385Z,49.97
2023-04-19T19:25:26.830Z,50.19
2023-04-19T19:28:07.537Z,50.26
2023-04-19T19:30:39.498Z,50.42
2023-04-19T19:33:12.098Z,50.39
2023-04-19T19:35:41.925Z,50.43
2023-04-19T19:38:11.837Z,50.70
2023-04-19T19:43:20.264Z,50.87
2023-04-19T19:45:50.448Z,51.24
2023-04-19T19:48:18.650Z,51.32
2023-04-19T19:51:17.195Z,51.37
2023-04-19T19:53:35.261Z,51.25
2023-04-19T19:56:04.318Z,51.35
2023-04-19T19:58:49.720Z,51.24
2023-04-19T20:01:22.500Z,51.33
2023-04-19T20:03:56.539Z,51.29
2023-04-19T20:07:21.506Z,51.29
2023-04-19T20:09:13.501Z,51.30
2023-04-19T20:11:42.838Z,51.27
2023-04-19T20:14:13.086Z,51.22
2023-04-19T20:16:42.907Z,51.27
2023-04-19T20:19:12.380Z,51.24
2023-04-19T20:21:41.706Z,51.32
2023-04-19T20:24:13.966Z,51.17
2023-04-19T20:26:43.738Z,51.38
2023-04-19T20:29:13.721Z,51.27
2023-04-19T20:31:43.233Z,51.27
2023-04-19T20:34:11.515Z,51.31
2023-04-19T20:36:41.013Z,51.43
2023-04-19T20:39:10.765Z,51.46
2023-04-19T20:41:40.187Z,51.34
2023-04-19T20:44:10.164Z,51.23
2023-04-19T20:46:39.283Z,51.23
2023-04-19T20:49:08.934Z,51.15
2023-04-19T20:51:39.040Z,50.98
2023-04-19T20:54:08.336Z,50.86
2023-04-19T20:56:36.447Z,50.96
2023-04-19T20:59:04.754Z,50.83
2023-04-19T21:01:33.462Z,50.88
2023-04-19T21:04:01.933Z,50.81
2023-04-19T21:06:31.038Z,50.88
2023-04-19T21:08:59.283Z,51.03
2023-04-19T21:11:27.387Z,51.01
2023-04-19T21:13:56.058Z,51.07
2023-04-19T21:16:24.358Z,51.01
2023-04-19T21:18:53.074Z,50.93
2023-04-19T21:21:21.590Z,50.78
2023-04-19T21:23:49.890Z,50.67
2023-04-19T21:26:18.571Z,50.62
2023-04-19T21:28:47.172Z,50.55
2023-04-19T21:31:15.653Z,50.38
2023-04-19T21:33:45.219Z,50.28
2023-04-19T21:36:13.607Z,50.14
2023-04-19T21:38:41.767Z,49.99
2023-04-19T21:41:09.958Z,49.77
2023-04-19T21:43:38.698Z,49.58
2023-04-19T21:46:06.874Z,49.43
2023-04-19T21:48:35.205Z,49.10
2023-04-19T21:51:03.683Z,48.73
2023-04-19T21:53:31.824Z,48.75
2023-04-19T21:56:00.054Z,48.69
2023-04-19T21:58:28.358Z,48.60
2023-04-19T22:00:56.575Z,48.41
2023-04-19T22:03:24.840Z,48.44
2023-04-19T22:05:53.181Z,48.20
2023-04-19T22:08:21.451Z,48.19
2023-04-19T22:10:49.592Z,48.18
2023-04-19T22:13:18.377Z,48.13
2023-04-19T22:15:46.688Z,48.08
2023-04-19T22:18:14.975Z,47.96
2023-04-19T22:20:43.316Z,47.59
2023-04-19T22:23:11.564Z,47.31
2023-04-19T22:25:39.746Z,47.33
2023-04-19T22:28:07.981Z,47.32
2023-04-19T22:30:36.184Z,47.30
2023-04-19T22:33:04.496Z,47.18
2023-04-19T22:35:33.616Z,47.21
2023-04-19T22:38:01.886Z,47.17
2023-04-19T22:40:30.153Z,47.27
2023-04-19T22:42:58.461Z,47.21
2023-04-19T22:45:26.755Z,47.04
2023-04-19T22:47:54.973Z,47.03
2023-04-19T22:50:23.359Z,46.93
2023-04-19T22:52:51.600Z,46.92
2023-04-19T22:55:19.927Z,46.81
2023-04-19T22:57:48.370Z,46.62
2023-04-19T23:00:17.037Z,46.63
2023-04-19T23:02:46.738Z,46.63
2023-04-19T23:05:15.457Z,46.58
2023-04-19T23:07:44.429Z,46.57
2023-04-19T23:10:12.768Z,46.54
2023-04-19T23:12:41.199Z,46.45
2023-04-19T23:15:11.517Z,46.39
2023-04-19T23:17:40.033Z,46.43
2023-04-19T23:20:09.734Z,46.34
2023-04-19T23:22:39.405Z,46.31
2023-04-19T23:25:08.582Z,46.23
2023-04-19T23:27:37.430Z,46.17
2023-04-19T23:30:07.166Z,46.22
2023-04-19T23:32:35.598Z,46.21
2023-04-19T23:35:04.994Z,46.26
2023-04-19T23:37:33.329Z,46.24
2023-04-19T23:40:01.492Z,46.19
2023-04-19T23:42:29.962Z,46.19
2023-04-19T23:44:58.864Z,46.24
2023-04-19T23:47:27.092Z,46.23
2023-04-19T23:49:55.297Z,46.37
2023-04-19T23:52:23.452Z,46.57
2023-04-19T23:54:52.314Z,46.78
2023-04-19T23:57:20.979Z,46.98
2023-04-19T23:59:49.946Z,47.25
